sensor_id;sensor_type;location;lat;lon;timestamp;pressure;altitude;pressure_sealevel;temperature;humidity
55576;BME280;41437;45.478;9.116;2023-12-07T00:02:45;99796.50;;;0.90;100.00
55576;BME280;41437;45.478;9.116;2023-12-07T00:05:47;99794.38;;;0.79;100.00
55576;BME280;41437;45.478;9.116;2023-12-07T00:08:48;99786.91;;;0.87;100.00
55576;BME280;41437;45.478;9.116;2023-12-07T00:11:51;99794.16;;;1.15;100.00
55576;BME280;41437;45.478;9.116;2023-12-07T00:14:52;99792.97;;;0.89;100.00
55576;BME280;41437;45.478;9.116;2023-12-07T00:17:53;99794.31;;;0.72;100.00
55576;BME280;41437;45.478;9.116;2023-12-07T00:20:55;99804.91;;;0.67;100.00
55576;BME280;41437;45.478;9.116;2023-12-07T00:23:56;99807.22;;;0.42;100.00
55576;BME280;41437;45.478;9.116;2023-12-07T00:26:59;99810.16;;;-0.03;100.00
55576;BME280;41437;45.478;9.116;2023-12-07T00:30:00;99814.22;;;0.08;100.00
55576;BME280;41437;45.478;9.116;2023-12-07T00:33:03;99823.44;;;0.14;100.00
55576;BME280;41437;45.478;9.116;2023-12-07T00:36:05;99820.66;;;0.29;100.00
55576;BME280;41437;45.478;9.116;2023-12-07T00:39:06;99815.75;;;0.39;100.00
55576;BME280;41437;45.478;9.116;2023-12-07T00:42:10;99814.44;;;0.35;100.00
55576;BME280;41437;45.478;9.116;2023-12-07T00:45:11;99814.63;;;0.55;100.00
55576;BME280;41437;45.478;9.116;2023-12-07T00:48:13;99809.78;;;0.78;100.00
55576;BME280;41437;45.478;9.116;2023-12-07T00:51:15;99808.59;;;0.59;100.00
55576;BME280;41437;45.478;9.116;2023-12-07T00:54:16;99816.66;;;0.03;100.00
55576;BME280;41437;45.478;9.116;2023-12-07T00:57:19;99821.84;;;-0.38;100.00
55576;BME280;41437;45.478;9.116;2023-12-07T01:00:20;99809.09;;;-0.23;100.00
55576;BME280;41437;45.478;9.116;2023-12-07T01:03:22;99814.53;;;-0.02;100.00
55576;BME280;41437;45.478;9.116;2023-12-07T01:06:24;99807.56;;;0.32;100.00
55576;BME280;41437;45.478;9.116;2023-12-07T01:09:25;99814.44;;;0.35;100.00
55576;BME280;41437;45.478;9.116;2023-12-07T01:12:28;99805.75;;;0.39;100.00
55576;BME280;41437;45.478;9.116;2023-12-07T01:15:30;99814.75;;;0.18;100.00
55576;BME280;41437;45.478;9.116;2023-12-07T01:18:31;99809.81;;;-0.14;100.00
55576;BME280;41437;45.478;9.116;2023-12-07T01:21:33;99812.66;;;0.20;100.00
55576;BME280;41437;45.478;9.116;2023-12-07T01:24:34;99823.88;;;0.39;100.00
55576;BME280;41437;45.478;9.116;2023-12-07T01:27:37;99818.97;;;0.49;100.00
55576;BME280;41437;45.478;9.116;2023-12-07T01:30:38;99818.00;;;0.57;100.00
55576;BME280;41437;45.478;9.116;2023-12-07T01:33:39;99810.91;;;0.34;100.00
55576;BME280;41437;45.478;9.116;2023-12-07T01:36:41;99817.63;;;0.38;100.00
55576;BME280;41437;45.478;9.116;2023-12-07T01:39:42;99815.03;;;0.09;100.00
55576;BME280;41437;45.478;9.116;2023-12-07T01:42:50;99820.66;;;-0.14;100.00
55576;BME280;41437;45.478;9.116;2023-12-07T01:45:52;99829.47;;;-0.27;100.00
55576;BME280;41437;45.478;9.116;2023-12-07T01:48:56;99831.72;;;0.06;100.00
55576;BME280;41437;45.478;9.116;2023-12-07T01:51:57;99833.16;;;0.30;100.00
55576;BME280;41437;45.478;9.116;2023-12-07T01:54:59;99832.06;;;0.45;100.00
55576;BME280;41437;45.478;9.116;2023-12-07T01:58:02;99831.16;;;0.38;100.00
55576;BME280;41437;45.478;9.116;2023-12-07T02:01:04;99840.34;;;0.37;100.00
55576;BME280;41437;45.478;9.116;2023-12-07T02:04:06;99838.59;;;0.30;100.00
55576;BME280;41437;45.478;9.116;2023-12-07T02:07:07;99840.19;;;-0.19;100.00
55576;BME280;41437;45.478;9.116;2023-12-07T02:10:10;99848.78;;;-0.52;100.00
55576;BME280;41437;45.478;9.116;2023-12-07T02:13:12;99851.00;;;-0.19;100.00
55576;BME280;41437;45.478;9.116;2023-12-07T02:16:15;99844.41;;;-0.31;100.00
55576;BME280;41437;45.478;9.116;2023-12-07T02:19:23;99843.25;;;-0.07;100.00
55576;BME280;41437;45.478;9.116;2023-12-07T02:22:29;99843.50;;;0.19;100.00
55576;BME280;41437;45.478;9.116;2023-12-07T02:25:35;99845.56;;;0.17;100.00
55576;BME280;41437;45.478;9.116;2023-12-07T02:28:39;99837.63;;;0.16;100.00
55576;BME280;41437;45.478;9.116;2023-12-07T02:31:40;99836.91;;;-0.14;100.00
55576;BME280;41437;45.478;9.116;2023-12-07T02:34:42;99835.41;;;-0.38;100.00
55576;BME280;41437;45.478;9.116;2023-12-07T02:37:44;99838.91;;;-0.02;100.00
55576;BME280;41437;45.478;9.116;2023-12-07T02:40:46;99841.00;;;0.18;100.00
55576;BME280;41437;45.478;9.116;2023-12-07T02:43:50;99851.31;;;0.29;100.00
55576;BME280;41437;45.478;9.116;2023-12-07T02:46:52;99843.06;;;0.16;100.00
55576;BME280;41437;45.478;9.116;2023-12-07T02:49:53;99842.34;;;0.29;100.00
55576;BME280;41437;45.478;9.116;2023-12-07T02:52:55;99840.22;;;0.03;100.00
55576;BME280;41437;45.478;9.116;2023-12-07T02:55:56;99848.03;;;-0.24;100.00
55576;BME280;41437;45.478;9.116;2023-12-07T02:58:59;99851.31;;;-0.65;100.00
55576;BME280;41437;45.478;9.116;2023-12-07T03:02:01;99849.44;;;-0.64;100.00
55576;BME280;41437;45.478;9.116;2023-12-07T03:05:02;99843.00;;;-0.27;100.00
55576;BME280;41437;45.478;9.116;2023-12-07T03:08:04;99841.84;;;-0.18;100.00
55576;BME280;41437;45.478;9.116;2023-12-07T03:11:05;99830.31;;;-0.05;100.00
55576;BME280;41437;45.478;9.116;2023-12-07T03:14:08;99837.00;;;-0.08;100.00
55576;BME280;41437;45.478;9.116;2023-12-07T03:17:09;99846.97;;;-0.08;100.00
55576;BME280;41437;45.478;9.116;2023-12-07T03:20:11;99857.41;;;-0.05;100.00
55576;BME280;41437;45.478;9.116;2023-12-07T03:23:12;99855.53;;;-0.05;100.00
55576;BME280;41437;45.478;9.116;2023-12-07T03:26:13;99853.97;;;0.01;100.00
55576;BME280;41437;45.478;9.116;2023-12-07T03:29:17;99857.25;;;0.18;100.00
55576;BME280;41437;45.478;9.116;2023-12-07T03:32:18;99855.88;;;0.29;100.00
55576;BME280;41437;45.478;9.116;2023-12-07T03:35:19;99851.38;;;-0.07;100.00
55576;BME280;41437;45.478;9.116;2023-12-07T03:38:21;99865.28;;;-0.10;100.00
55576;BME280;41437;45.478;9.116;2023-12-07T03:41:22;99866.66;;;0.01;100.00
55576;BME280;41437;45.478;9.116;2023-12-07T03:44:25;99868.66;;;-0.08;100.00
55576;BME280;41437;45.478;9.116;2023-12-07T03:47:26;99875.44;;;0.03;100.00
55576;BME280;41437;45.478;9.116;2023-12-07T03:50:28;99887.56;;;0.07;100.00
55576;BME280;41437;45.478;9.116;2023-12-07T03:53:29;99879.22;;;0.08;100.00
55576;BME280;41437;45.478;9.116;2023-12-07T03:56:31;99883.75;;;0.01;100.00
55576;BME280;41437;45.478;9.116;2023-12-07T03:59:34;99878.66;;;-0.09;100.00
55576;BME280;41437;45.478;9.116;2023-12-07T04:02:38;99877.84;;;-0.24;100.00
55576;BME280;41437;45.478;9.116;2023-12-07T04:05:40;99879.28;;;-0.07;100.00
55576;BME280;41437;45.478;9.116;2023-12-07T04:08:41;99883.13;;;-0.16;100.00
55576;BME280;41437;45.478;9.116;2023-12-07T04:11:43;99880.22;;;-0.80;100.00
55576;BME280;41437;45.478;9.116;2023-12-07T04:14:47;99879.09;;;-0.71;100.00
55576;BME280;41437;45.478;9.116;2023-12-07T04:17:48;99882.34;;;-0.46;100.00
55576;BME280;41437;45.478;9.116;2023-12-07T04:20:50;99889.81;;;-0.33;100.00
55576;BME280;41437;45.478;9.116;2023-12-07T04:23:51;99893.06;;;-0.38;100.00
55576;BME280;41437;45.478;9.116;2023-12-07T04:26:53;99906.88;;;-1.07;100.00
55576;BME280;41437;45.478;9.116;2023-12-07T04:29:55;99888.28;;;-1.10;100.00
55576;BME280;41437;45.478;9.116;2023-12-07T04:32:57;99896.34;;;-1.02;100.00
55576;BME280;41437;45.478;9.116;2023-12-07T04:35:58;99898.88;;;-1.00;100.00
55576;BME280;41437;45.478;9.116;2023-12-07T04:39:00;99901.66;;;-0.79;100.00
55576;BME280;41437;45.478;9.116;2023-12-07T04:42:01;99894.78;;;-0.52;100.00
55576;BME280;41437;45.478;9.116;2023-12-07T04:45:04;99903.56;;;-0.64;100.00
55576;BME280;41437;45.478;9.116;2023-12-07T04:48:06;99902.03;;;-0.96;100.00
55576;BME280;41437;45.478;9.116;2023-12-07T04:51:07;99907.28;;;-0.80;100.00
55576;BME280;41437;45.478;9.116;2023-12-07T04:54:09;99896.06;;;-0.92;100.00
55576;BME280;41437;45.478;9.116;2023-12-07T04:57:10;99906.53;;;-0.74;100.00
55576;BME280;41437;45.478;9.116;2023-12-07T05:00:13;99909.63;;;-1.30;100.00
55576;BME280;41437;45.478;9.116;2023-12-07T05:03:14;99908.47;;;-1.35;100.00
55576;BME280;41437;45.478;9.116;2023-12-07T05:06:16;99905.84;;;-1.06;100.00
55576;BME280;41437;45.478;9.116;2023-12-07T05:09:17;99909.97;;;-0.80;100.00
55576;BME280;41437;45.478;9.116;2023-12-07T05:12:19;99899.44;;;-0.60;100.00
55576;BME280;41437;45.478;9.116;2023-12-07T05:15:22;99901.78;;;-0.72;100.00
55576;BME280;41437;45.478;9.116;2023-12-07T05:18:23;99897.66;;;-0.68;100.00
55576;BME280;41437;45.478;9.116;2023-12-07T05:21:24;99892.22;;;-0.53;100.00
55576;BME280;41437;45.478;9.116;2023-12-07T05:24:26;99898.47;;;-0.53;100.00
55576;BME280;41437;45.478;9.116;2023-12-07T05:27:27;99900.66;;;-0.63;100.00
55576;BME280;41437;45.478;9.116;2023-12-07T05:30:30;99909.06;;;-0.72;100.00
55576;BME280;41437;45.478;9.116;2023-12-07T05:33:31;99918.47;;;-0.54;100.00
55576;BME280;41437;45.478;9.116;2023-12-07T05:36:33;99921.06;;;-0.45;100.00
55576;BME280;41437;45.478;9.116;2023-12-07T05:39:34;99919.03;;;-0.43;100.00
55576;BME280;41437;45.478;9.116;2023-12-07T05:42:36;99921.25;;;-0.32;100.00
55576;BME280;41437;45.478;9.116;2023-12-07T05:45:38;99915.19;;;-0.34;100.00
55576;BME280;41437;45.478;9.116;2023-12-07T05:48:41;99919.41;;;-0.46;100.00
55576;BME280;41437;45.478;9.116;2023-12-07T05:51:42;99921.19;;;-0.39;100.00
55576;BME280;41437;45.478;9.116;2023-12-07T05:54:43;99930.13;;;-0.38;100.00
55576;BME280;41437;45.478;9.116;2023-12-07T05:57:46;99942.63;;;-0.67;100.00
55576;BME280;41437;45.478;9.116;2023-12-07T06:00:49;99945.41;;;-0.75;100.00
55576;BME280;41437;45.478;9.116;2023-12-07T06:03:51;99941.41;;;-0.79;100.00
55576;BME280;41437;45.478;9.116;2023-12-07T06:06:52;99943.38;;;-0.73;100.00
55576;BME280;41437;45.478;9.116;2023-12-07T06:09:53;99946.75;;;-0.56;100.00
55576;BME280;41437;45.478;9.116;2023-12-07T06:12:55;99955.03;;;-0.58;100.00
55576;BME280;41437;45.478;9.116;2023-12-07T06:15:59;99957.59;;;-0.56;100.00
55576;BME280;41437;45.478;9.116;2023-12-07T06:19:03;99960.06;;;-0.84;100.00
55576;BME280;41437;45.478;9.116;2023-12-07T06:22:04;99966.00;;;-1.04;100.00
55576;BME280;41437;45.478;9.116;2023-12-07T06:25:06;99980.22;;;-0.72;100.00
55576;BME280;41437;45.478;9.116;2023-12-07T06:28:08;99984.81;;;-0.72;100.00
55576;BME280;41437;45.478;9.116;2023-12-07T06:31:11;99989.47;;;-0.66;100.00
55576;BME280;41437;45.478;9.116;2023-12-07T06:34:15;99989.16;;;-0.86;100.00
55576;BME280;41437;45.478;9.116;2023-12-07T06:37:16;99992.88;;;-1.25;100.00
55576;BME280;41437;45.478;9.116;2023-12-07T06:40:18;99989.25;;;-0.94;100.00
55576;BME280;41437;45.478;9.116;2023-12-07T06:43:20;99991.81;;;-0.78;100.00
55576;BME280;41437;45.478;9.116;2023-12-07T06:46:24;99998.53;;;-0.74;100.00
55576;BME280;41437;45.478;9.116;2023-12-07T06:49:25;100000.28;;;-0.66;100.00
55576;BME280;41437;45.478;9.116;2023-12-07T06:52:26;100003.56;;;-0.71;100.00
55576;BME280;41437;45.478;9.116;2023-12-07T06:55:28;100001.44;;;-0.61;100.00
55576;BME280;41437;45.478;9.116;2023-12-07T06:58:29;99998.94;;;-0.47;100.00
55576;BME280;41437;45.478;9.116;2023-12-07T07:01:32;100001.03;;;-0.72;100.00
55576;BME280;41437;45.478;9.116;2023-12-07T07:04:33;100015.28;;;-0.79;100.00
55576;BME280;41437;45.478;9.116;2023-12-07T07:07:34;100025.78;;;-0.98;100.00
55576;BME280;41437;45.478;9.116;2023-12-07T07:10:36;100028.38;;;-0.67;100.00
55576;BME280;41437;45.478;9.116;2023-12-07T07:13:37;100040.50;;;-1.01;100.00
55576;BME280;41437;45.478;9.116;2023-12-07T07:16:40;100042.66;;;-1.19;100.00
55576;BME280;41437;45.478;9.116;2023-12-07T07:19:41;100060.06;;;-0.91;100.00
55576;BME280;41437;45.478;9.116;2023-12-07T07:22:43;100059.34;;;-0.70;100.00
55576;BME280;41437;45.478;9.116;2023-12-07T07:25:45;100061.94;;;-0.77;100.00
55576;BME280;41437;45.478;9.116;2023-12-07T07:28:46;100070.66;;;-0.66;100.00
55576;BME280;41437;45.478;9.116;2023-12-07T07:31:49;100065.34;;;-0.60;100.00
55576;BME280;41437;45.478;9.116;2023-12-07T07:34:50;100074.16;;;-0.43;100.00
55576;BME280;41437;45.478;9.116;2023-12-07T07:37:52;100071.69;;;-0.53;100.00
55576;BME280;41437;45.478;9.116;2023-12-07T07:40:54;100066.22;;;-0.44;100.00
55576;BME280;41437;45.478;9.116;2023-12-07T07:43:55;100060.91;;;-0.38;100.00
55576;BME280;41437;45.478;9.116;2023-12-07T07:46:58;100072.88;;;-0.32;100.00
55576;BME280;41437;45.478;9.116;2023-12-07T07:49:59;100068.56;;;-0.27;100.00
55576;BME280;41437;45.478;9.116;2023-12-07T07:53:05;100070.00;;;-0.16;100.00
55576;BME280;41437;45.478;9.116;2023-12-07T07:56:07;100084.28;;;-0.07;100.00
55576;BME280;41437;45.478;9.116;2023-12-07T07:59:09;100078.31;;;-0.17;100.00
55576;BME280;41437;45.478;9.116;2023-12-07T08:02:12;100085.00;;;-0.28;100.00
55576;BME280;41437;45.478;9.116;2023-12-07T08:05:14;100095.97;;;-0.07;100.00
55576;BME280;41437;45.478;9.116;2023-12-07T08:08:15;100098.09;;;0.13;100.00
55576;BME280;41437;45.478;9.116;2023-12-07T08:11:16;100109.88;;;0.20;100.00
55576;BME280;41437;45.478;9.116;2023-12-07T08:14:18;100111.28;;;0.16;100.00
55576;BME280;41437;45.478;9.116;2023-12-07T08:17:21;100119.78;;;0.13;100.00
55576;BME280;41437;45.478;9.116;2023-12-07T08:20:23;100116.41;;;-0.19;100.00
55576;BME280;41437;45.478;9.116;2023-12-07T08:23:25;100123.41;;;-0.10;100.00
55576;BME280;41437;45.478;9.116;2023-12-07T08:26:26;100128.09;;;-0.04;100.00
55576;BME280;41437;45.478;9.116;2023-12-07T08:29:28;100126.50;;;-0.13;100.00
55576;BME280;41437;45.478;9.116;2023-12-07T08:32:31;100127.50;;;-0.14;100.00
55576;BME280;41437;45.478;9.116;2023-12-07T08:35:32;100121.75;;;0.19;100.00
55576;BME280;41437;45.478;9.116;2023-12-07T08:38:33;100122.25;;;0.73;100.00
55576;BME280;41437;45.478;9.116;2023-12-07T08:41:35;100117.75;;;0.81;100.00
55576;BME280;41437;45.478;9.116;2023-12-07T08:44:37;100128.56;;;0.95;100.00
55576;BME280;41437;45.478;9.116;2023-12-07T08:47:40;100144.25;;;1.15;100.00
55576;BME280;41437;45.478;9.116;2023-12-07T08:50:42;100144.75;;;1.25;100.00
55576;BME280;41437;45.478;9.116;2023-12-07T08:53:43;100158.47;;;1.38;100.00
55576;BME280;41437;45.478;9.116;2023-12-07T08:56:48;100158.72;;;1.65;100.00
55576;BME280;41437;45.478;9.116;2023-12-07T08:59:49;100163.25;;;1.79;100.00
55576;BME280;41437;45.478;9.116;2023-12-07T09:02:52;100168.19;;;1.97;100.00
55576;BME280;41437;45.478;9.116;2023-12-07T09:05:53;100174.75;;;1.81;100.00
55576;BME280;41437;45.478;9.116;2023-12-07T09:08:55;100169.63;;;1.93;100.00
55576;BME280;41437;45.478;9.116;2023-12-07T09:11:56;100174.88;;;2.22;100.00
55576;BME280;41437;45.478;9.116;2023-12-07T09:14:57;100180.25;;;2.44;100.00
55576;BME280;41437;45.478;9.116;2023-12-07T09:18:00;100177.78;;;2.56;100.00
55576;BME280;41437;45.478;9.116;2023-12-07T09:21:02;100183.88;;;2.58;100.00
55576;BME280;41437;45.478;9.116;2023-12-07T09:24:04;100173.03;;;2.64;100.00
55576;BME280;41437;45.478;9.116;2023-12-07T09:27:06;100181.25;;;2.36;100.00
55576;BME280;41437;45.478;9.116;2023-12-07T09:30:09;100173.00;;;2.23;100.00
55576;BME280;41437;45.478;9.116;2023-12-07T09:33:13;100183.50;;;2.05;100.00
55576;BME280;41437;45.478;9.116;2023-12-07T09:36:16;100185.09;;;2.20;100.00
55576;BME280;41437;45.478;9.116;2023-12-07T09:39:18;100190.97;;;2.24;100.00
55576;BME280;41437;45.478;9.116;2023-12-07T09:42:19;100183.31;;;2.34;100.00
55576;BME280;41437;45.478;9.116;2023-12-07T09:45:21;100176.50;;;2.51;100.00
55576;BME280;41437;45.478;9.116;2023-12-07T09:48:23;100174.28;;;2.62;100.00
55576;BME280;41437;45.478;9.116;2023-12-07T09:51:25;100176.03;;;2.76;100.00
55576;BME280;41437;45.478;9.116;2023-12-07T09:54:28;100166.69;;;2.92;100.00
55576;BME280;41437;45.478;9.116;2023-12-07T09:57:31;100162.13;;;3.06;100.00
55576;BME280;41437;45.478;9.116;2023-12-07T10:00:34;100158.47;;;3.53;100.00
55576;BME280;41437;45.478;9.116;2023-12-07T10:03:36;100155.56;;;3.81;100.00
55576;BME280;41437;45.478;9.116;2023-12-07T10:06:42;100155.13;;;4.17;100.00
55576;BME280;41437;45.478;9.116;2023-12-07T10:09:43;100147.78;;;4.31;100.00
55576;BME280;41437;45.478;9.116;2023-12-07T10:12:45;100142.28;;;4.44;100.00
55576;BME280;41437;45.478;9.116;2023-12-07T10:15:47;100146.06;;;4.50;100.00
55576;BME280;41437;45.478;9.116;2023-12-07T10:18:51;100133.19;;;4.64;100.00
55576;BME280;41437;45.478;9.116;2023-12-07T10:21:53;100135.31;;;4.62;100.00
55576;BME280;41437;45.478;9.116;2023-12-07T10:24:54;100135.03;;;4.76;100.00
55576;BME280;41437;45.478;9.116;2023-12-07T10:27:56;100139.13;;;5.06;100.00
55576;BME280;41437;45.478;9.116;2023-12-07T10:30:57;100128.25;;;5.30;100.00
55576;BME280;41437;45.478;9.116;2023-12-07T10:34:00;100131.94;;;5.49;100.00
55576;BME280;41437;45.478;9.116;2023-12-07T10:37:01;100121.19;;;5.54;100.00
55576;BME280;41437;45.478;9.116;2023-12-07T10:40:05;100115.88;;;5.60;100.00
55576;BME280;41437;45.478;9.116;2023-12-07T10:43:07;100103.84;;;5.67;99.28
55576;BME280;41437;45.478;9.116;2023-12-07T10:46:09;100095.38;;;5.75;99.96
55576;BME280;41437;45.478;9.116;2023-12-07T10:49:17;100097.03;;;5.76;100.00
55576;BME280;41437;45.478;9.116;2023-12-07T10:52:20;100095.09;;;5.84;100.00
55576;BME280;41437;45.478;9.116;2023-12-07T10:55:25;100080.25;;;5.98;98.91
55576;BME280;41437;45.478;9.116;2023-12-07T10:58:29;100086.00;;;6.15;95.09
55576;BME280;41437;45.478;9.116;2023-12-07T11:01:30;100080.97;;;6.12;96.38
55576;BME280;41437;45.478;9.116;2023-12-07T11:04:34;100067.66;;;6.34;91.12
55576;BME280;41437;45.478;9.116;2023-12-07T11:07:38;100075.66;;;6.35;95.21
55576;BME280;41437;45.478;9.116;2023-12-07T11:10:43;100074.50;;;6.43;92.73
55576;BME280;41437;45.478;9.116;2023-12-07T11:13:47;100083.56;;;6.62;86.58
55576;BME280;41437;45.478;9.116;2023-12-07T11:16:52;100082.50;;;6.63;86.13
55576;BME280;41437;45.478;9.116;2023-12-07T11:19:55;100093.88;;;6.78;85.94
55576;BME280;41437;45.478;9.116;2023-12-07T11:22:58;100091.13;;;6.96;79.66
55576;BME280;41437;45.478;9.116;2023-12-07T11:26:00;100087.34;;;7.09;78.45
55576;BME280;41437;45.478;9.116;2023-12-07T11:29:01;100089.84;;;6.99;78.85
55576;BME280;41437;45.478;9.116;2023-12-07T11:32:03;100093.34;;;7.18;74.81
55576;BME280;41437;45.478;9.116;2023-12-07T11:35:08;100094.69;;;7.27;72.36
55576;BME280;41437;45.478;9.116;2023-12-07T11:38:12;100100.34;;;7.32;71.88
55576;BME280;41437;45.478;9.116;2023-12-07T11:41:16;100098.63;;;7.31;76.92
55576;BME280;41437;45.478;9.116;2023-12-07T11:44:17;100097.94;;;7.36;73.43
55576;BME280;41437;45.478;9.116;2023-12-07T11:47:19;100094.03;;;7.43;75.87
55576;BME280;41437;45.478;9.116;2023-12-07T11:50:22;100097.41;;;7.45;74.94
55576;BME280;41437;45.478;9.116;2023-12-07T11:53:25;100102.06;;;7.56;67.42
55576;BME280;41437;45.478;9.116;2023-12-07T11:56:26;100091.09;;;7.45;65.56
55576;BME280;41437;45.478;9.116;2023-12-07T11:59:28;100098.06;;;7.29;64.79
55576;BME280;41437;45.478;9.116;2023-12-07T12:02:29;100095.44;;;7.34;64.96
55576;BME280;41437;45.478;9.116;2023-12-07T12:05:35;100095.56;;;7.81;65.51
55576;BME280;41437;45.478;9.116;2023-12-07T12:08:39;100096.91;;;8.02;62.51
55576;BME280;41437;45.478;9.116;2023-12-07T12:11:43;100086.47;;;7.92;62.90
55576;BME280;41437;45.478;9.116;2023-12-07T12:14:46;100088.53;;;8.09;64.43
55576;BME280;41437;45.478;9.116;2023-12-07T12:17:48;100089.25;;;8.16;67.77
55576;BME280;41437;45.478;9.116;2023-12-07T12:20:51;100085.09;;;8.01;74.58
55576;BME280;41437;45.478;9.116;2023-12-07T12:23:52;100074.94;;;7.90;80.81
55576;BME280;41437;45.478;9.116;2023-12-07T12:26:54;100077.16;;;7.70;87.55
55576;BME280;41437;45.478;9.116;2023-12-07T12:29:55;100064.66;;;7.74;88.89
55576;BME280;41437;45.478;9.116;2023-12-07T12:32:57;100071.44;;;7.83;91.08
55576;BME280;41437;45.478;9.116;2023-12-07T12:36:02;100073.63;;;8.04;89.00
55576;BME280;41437;45.478;9.116;2023-12-07T12:39:05;100069.22;;;7.80;93.84
55576;BME280;41437;45.478;9.116;2023-12-07T12:42:08;100073.00;;;7.79;97.23
55576;BME280;41437;45.478;9.116;2023-12-07T12:45:11;100074.22;;;8.06;95.74
55576;BME280;41437;45.478;9.116;2023-12-07T12:48:12;100068.22;;;8.10;95.13
55576;BME280;41437;45.478;9.116;2023-12-07T12:51:15;100061.59;;;8.05;92.83
55576;BME280;41437;45.478;9.116;2023-12-07T12:54:17;100054.75;;;7.96;93.49
55576;BME280;41437;45.478;9.116;2023-12-07T12:57:21;100045.47;;;7.86;94.69
55576;BME280;41437;45.478;9.116;2023-12-07T13:00:24;100044.63;;;7.73;95.06
55576;BME280;41437;45.478;9.116;2023-12-07T13:03:25;100038.91;;;7.75;93.57
55576;BME280;41437;45.478;9.116;2023-12-07T13:06:28;100038.28;;;7.96;91.84
55576;BME280;41437;45.478;9.116;2023-12-07T13:09:29;100026.59;;;8.01;91.91
55576;BME280;41437;45.478;9.116;2023-12-07T13:12:31;100026.13;;;8.16;91.37
55576;BME280;41437;45.478;9.116;2023-12-07T13:15:35;100024.31;;;8.33;86.65
55576;BME280;41437;45.478;9.116;2023-12-07T13:18:37;100030.28;;;8.30;89.68
55576;BME280;41437;45.478;9.116;2023-12-07T13:21:41;100041.63;;;8.34;88.09
55576;BME280;41437;45.478;9.116;2023-12-07T13:24:42;100033.75;;;8.25;89.94
55576;BME280;41437;45.478;9.116;2023-12-07T13:27:44;100045.91;;;8.18;91.87
55576;BME280;41437;45.478;9.116;2023-12-07T13:30:46;100039.50;;;8.00;93.37
55576;BME280;41437;45.478;9.116;2023-12-07T13:33:47;100050.81;;;8.04;93.70
55576;BME280;41437;45.478;9.116;2023-12-07T13:36:50;100050.34;;;7.95;95.99
55576;BME280;41437;45.478;9.116;2023-12-07T13:39:51;100050.34;;;8.07;90.65
55576;BME280;41437;45.478;9.116;2023-12-07T13:42:57;100049.38;;;8.13;91.29
55576;BME280;41437;45.478;9.116;2023-12-07T13:45:58;100034.84;;;8.13;94.49
55576;BME280;41437;45.478;9.116;2023-12-07T13:49:01;100038.41;;;8.13;91.57
55576;BME280;41437;45.478;9.116;2023-12-07T13:52:05;100029.13;;;8.02;92.00
55576;BME280;41437;45.478;9.116;2023-12-07T13:55:07;100028.50;;;8.00;91.87
55576;BME280;41437;45.478;9.116;2023-12-07T13:58:09;100025.53;;;8.02;92.10
55576;BME280;41437;45.478;9.116;2023-12-07T14:01:10;100023.53;;;7.97;91.23
55576;BME280;41437;45.478;9.116;2023-12-07T14:04:12;100031.72;;;8.21;89.46
55576;BME280;41437;45.478;9.116;2023-12-07T14:07:15;100038.28;;;8.20;89.58
55576;BME280;41437;45.478;9.116;2023-12-07T14:10:16;100038.75;;;8.17;89.60
55576;BME280;41437;45.478;9.116;2023-12-07T14:13:18;100038.66;;;8.12;88.60
55576;BME280;41437;45.478;9.116;2023-12-07T14:16:19;100033.75;;;8.14;88.85
55576;BME280;41437;45.478;9.116;2023-12-07T14:19:21;100037.56;;;8.13;88.05
55576;BME280;41437;45.478;9.116;2023-12-07T14:22:23;100044.50;;;8.03;88.48
55576;BME280;41437;45.478;9.116;2023-12-07T14:25:25;100036.28;;;7.80;90.25
55576;BME280;41437;45.478;9.116;2023-12-07T14:28:26;100041.84;;;7.62;92.17
55576;BME280;41437;45.478;9.116;2023-12-07T14:31:30;100046.16;;;7.58;92.81
55576;BME280;41437;45.478;9.116;2023-12-07T14:34:33;100041.19;;;7.24;95.89
55576;BME280;41437;45.478;9.116;2023-12-07T14:37:36;100038.81;;;6.86;100.00
55576;BME280;41437;45.478;9.116;2023-12-07T14:40:41;100047.47;;;6.83;100.00
55576;BME280;41437;45.478;9.116;2023-12-07T14:43:47;100042.47;;;6.62;100.00
55576;BME280;41437;45.478;9.116;2023-12-07T14:46:49;100044.50;;;6.36;100.00
55576;BME280;41437;45.478;9.116;2023-12-07T14:49:50;100036.59;;;6.10;100.00
55576;BME280;41437;45.478;9.116;2023-12-07T14:52:53;100047.44;;;5.91;100.00
55576;BME280;41437;45.478;9.116;2023-12-07T14:55:54;100045.16;;;5.95;100.00
55576;BME280;41437;45.478;9.116;2023-12-07T14:58:57;100054.56;;;5.99;100.00
55576;BME280;41437;45.478;9.116;2023-12-07T15:01:58;100044.25;;;5.76;100.00
55576;BME280;41437;45.478;9.116;2023-12-07T15:05:00;100043.47;;;5.94;100.00
55576;BME280;41437;45.478;9.116;2023-12-07T15:08:03;100048.28;;;6.17;100.00
55576;BME280;41437;45.478;9.116;2023-12-07T15:11:04;100061.50;;;6.20;100.00
55576;BME280;41437;45.478;9.116;2023-12-07T15:14:07;100063.03;;;6.16;100.00
55576;BME280;41437;45.478;9.116;2023-12-07T15:17:11;100059.31;;;5.85;100.00
55576;BME280;41437;45.478;9.116;2023-12-07T15:20:12;100058.44;;;5.66;100.00
55576;BME280;41437;45.478;9.116;2023-12-07T15:23:15;100048.88;;;5.50;100.00
55576;BME280;41437;45.478;9.116;2023-12-07T15:26:16;100043.97;;;5.59;100.00
55576;BME280;41437;45.478;9.116;2023-12-07T15:29:18;100049.31;;;5.72;100.00
55576;BME280;41437;45.478;9.116;2023-12-07T15:32:19;100042.41;;;5.70;100.00
55576;BME280;41437;45.478;9.116;2023-12-07T15:35:21;100041.41;;;5.64;100.00
55576;BME280;41437;45.478;9.116;2023-12-07T15:38:24;100034.59;;;5.23;100.00
55576;BME280;41437;45.478;9.116;2023-12-07T15:41:25;100033.47;;;4.99;100.00
55576;BME280;41437;45.478;9.116;2023-12-07T15:44:26;100042.59;;;4.87;100.00
55576;BME280;41437;45.478;9.116;2023-12-07T15:47:28;100037.00;;;4.75;100.00
55576;BME280;41437;45.478;9.116;2023-12-07T15:50:29;100055.00;;;4.83;100.00
55576;BME280;41437;45.478;9.116;2023-12-07T15:53:32;100061.00;;;5.29;100.00
55576;BME280;41437;45.478;9.116;2023-12-07T15:56:38;100057.97;;;5.13;100.00